Time,TemperatureF,DewpointF,PressureIn,WindDirection,WindDirectionDegrees,WindSpeedMPH,WindSpeedGustMPH,Humidity,HourlyPrecipIn,Conditions,Clouds,dailyrainin,SoftwareType,DateUTC
2017-09-25 00:09:00,30.1,23.0,30.26,North,360,1.0,-999.0,76,-99.99,,,0.00,weatherlink.com 1.10,2017-09-25 06:09:00,
2017-09-25 00:24:00,30.0,23.0,30.26,North,360,4.0,-999.0,76,-99.99,,,0.00,weatherlink.com 1.10,2017-09-25 06:24:00,
2017-09-25 00:39:00,30.6,24.0,30.26,North,360,4.0,-999.0,76,-99.99,,,0.00,weatherlink.com 1.10,2017-09-25 06:39:00,
2017-09-25 00:54:00,30.7,24.0,30.26,North,360,2.0,-999.0,75,-99.99,,,0.00,weatherlink.com 1.10,2017-09-25 06:54:00,
2017-09-25 01:09:00,30.5,24.0,30.26,North,360,2.0,-999.0,76,-99.99,,,0.00,weatherlink.com 1.10,2017-09-25 07:09:00,
2017-09-25 01:24:00,30.8,24.0,30.26,North,360,4.0,-999.0,76,-99.99,,,0.00,weatherlink.com 1.10,2017-09-25 07:24:00,
2017-09-25 01:39:00,31.3,24.0,30.26,North,360,6.0,-999.0,75,-99.99,,,0.00,weatherlink.com 1.10,2017-09-25 07:39:00,
2017-09-25 01:54:00,31.9,24.0,30.26,North,360,5.0,-999.0,72,-99.99,,,0.00,weatherlink.com 1.10,2017-09-25 07:54:00,
2017-09-25 02:09:00,31.5,23.0,30.26,North,360,6.0,-999.0,72,-99.99,,,0.00,weatherlink.com 1.10,2017-09-25 08:09:00,
2017-09-25 02:24:00,31.4,23.0,30.26,North,360,4.0,-999.0,71,-99.99,,,0.00,weatherlink.com 1.10,2017-09-25 08:24:00,
2017-09-25 02:39:00,31.4,23.0,30.25,North,360,6.0,-999.0,71,-99.99,,,0.00,weatherlink.com 1.10,2017-09-25 08:39:00,
2017-09-25 02:54:00,31.5,23.0,30.25,North,360,4.0,-999.0,71,-99.99,,,0.00,weatherlink.com 1.10,2017-09-25 08:54:00,
2017-09-25 03:09:00,30.8,23.0,30.25,North,360,3.0,-999.0,72,-99.99,,,0.00,weatherlink.com 1.10,2017-09-25 09:09:00,
2017-09-25 03:39:00,29.0,23.0,30.26,North,360,3.0,-999.0,77,-99.99,,,0.00,weatherlink.com 1.10,2017-09-25 09:39:00,
2017-09-25 03:54:00,29.3,23.0,30.25,North,360,4.0,-999.0,77,-99.99,,,0.00,weatherlink.com 1.10,2017-09-25 09:54:00,
2017-09-25 04:09:00,28.8,22.0,30.26,North,360,1.0,-999.0,77,-99.99,,,0.00,weatherlink.com 1.10,2017-09-25 10:09:00,
2017-09-25 04:24:00,28.4,23.0,30.26,North,360,4.0,-999.0,79,-99.99,,,0.00,weatherlink.com 1.10,2017-09-25 10:24:00,
2017-09-25 04:39:00,29.0,23.0,30.26,North,360,4.0,-999.0,77,-99.99,,,0.00,weatherlink.com 1.10,2017-09-25 10:39:00,
2017-09-25 04:55:00,29.5,23.0,30.26,North,360,4.0,-999.0,76,-99.99,,,0.00,weatherlink.com 1.10,2017-09-25 10:55:00,
2017-09-25 05:09:00,30.1,23.0,30.27,North,360,5.0,-999.0,74,-99.99,,,0.00,weatherlink.com 1.10,2017-09-25 11:09:00,
2017-09-25 05:24:00,30.0,22.0,30.27,North,360,3.0,-999.0,73,-99.99,,,0.00,weatherlink.com 1.10,2017-09-25 11:24:00,
2017-09-25 05:40:00,28.8,22.0,30.27,North,360,2.0,-999.0,74,-99.99,,,0.00,weatherlink.com 1.10,2017-09-25 11:40:00,
2017-09-25 05:54:00,28.1,21.0,30.27,North,360,2.0,-999.0,75,-99.99,,,0.00,weatherlink.com 1.10,2017-09-25 11:54:00,
2017-09-25 06:10:00,27.6,21.0,30.28,North,360,1.0,-999.0,76,-99.99,,,0.00,weatherlink.com 1.10,2017-09-25 12:10:00,